Isidore — WDF2421 — position and weather

sailwx.info

Track history (hours):
 
Tides and Currents Weather Stations Pressure Air Temp Water Temp Dewpoint Dewpoint Depression Visibility Wind Speed Wind Dir Waves Ship Positions

Isidore

Owner: Enterprise Marine Services, LLC, San Antonio, TX. More information available from US FCC via Universal Licensing System and Coast Guard Vessel Documentation Center.

Last reported at 2017-Nov-13 01:04 UTC. Time now 2017-Nov-24 03:41 UTC.
Position N 29°56' W 093°06'.
Warning: this ship's position is 11 days out of date.

Length 21 m; draft 2.9 m.

Type: . MMSI: 367003410.

Date/timePositionNaut miles runAvg speedWind from/ knotsBaromVisibWave heightAir tempDewpointWater temp
2017-Nov-13 01:04N 29°56' W 093°06'0 4.3
2017-Nov-13 00:59N 29°56' W 093°06'2 4.5
2017-Nov-13 00:29N 29°56' W 093°09'1 2.0
2017-Nov-12 23:59N 29°56' W 093°10'2 3.6
2017-Nov-12 23:29N 29°58' W 093°11'2 4.8
2017-Nov-12 22:59N 29°60' W 093°13'2 4.3
2017-Nov-12 22:29N 30°02' W 093°14'2 3.5
2017-Nov-12 21:59N 30°03' W 093°16'2 4.3
2017-Nov-12 21:29N 30°05' W 093°17'1 2.2
2017-Nov-12 20:59N 30°05' W 093°18'1 2.0
2017-Nov-12 20:29N 30°06' W 093°18'0 0.2
2017-Nov-12 19:59N 30°06' W 093°18'0 0.0
2017-Nov-12 19:29N 30°06' W 093°18'0 0.0
2017-Nov-12 18:59N 30°06' W 093°18'0 0.1
2017-Nov-12 17:38N 30°06' W 093°18'0 1.6
2017-Nov-12 17:27N 30°06' W 093°19'1 1.8
2017-Nov-12 16:59N 30°06' W 093°20'2 4.2
2017-Nov-12 16:30N 30°08' W 093°20'2 4.7
2017-Nov-12 15:59N 30°10' W 093°19'3 5.2
2017-Nov-12 15:29N 30°12' W 093°17'2 3.9
2017-Nov-12 14:59N 30°14' W 093°15'0 0.7
2017-Nov-12 14:27N 30°14' W 093°15'0 0.2
2017-Nov-12 13:55N 30°14' W 093°15'0 0.1
2017-Nov-12 13:27N 30°14' W 093°15'0 0.0
2017-Nov-12 12:59N 30°14' W 093°15'0 0.0
2017-Nov-12 12:29N 30°14' W 093°15'0 0.0
2017-Nov-12 11:53N 30°14' W 093°15'51 1.7
2017-Nov-11 05:25N 29°52' W 092°22'2 5.0
2017-Nov-11 04:59N 29°51' W 092°20'2 4.7
2017-Nov-11 04:29N 29°50' W 092°18'2 5.0
2017-Nov-11 03:59N 29°48' W 092°16'3 5.8
2017-Nov-11 03:29N 29°47' W 092°13'  
Track history (hours):
 
Tides and Currents Weather Stations Pressure Air Temp Water Temp Dewpoint Dewpoint Depression Visibility Wind Speed Wind Dir Waves Ship Positions

Isidore

Owner: Enterprise Marine Services, LLC, San Antonio, TX. More information available from US FCC via Universal Licensing System and Coast Guard Vessel Documentation Center.

Last reported at 2017-Nov-13 01:04 UTC. Time now 2017-Nov-24 03:41 UTC.
Position N 29°56' W 093°06'.
Warning: this ship's position is 11 days out of date.

Length 21 m; draft 2.9 m.

Type: . MMSI: 367003410.

Date/timePositionNaut miles runAvg speedWind from/ knotsBaromVisibWave heightAir tempDewpointWater temp
2017-Nov-13 01:04N 29°56' W 093°06'0 4.3
2017-Nov-13 00:59N 29°56' W 093°06'2 4.5
2017-Nov-13 00:29N 29°56' W 093°09'1 2.0
2017-Nov-12 23:59N 29°56' W 093°10'2 3.6
2017-Nov-12 23:29N 29°58' W 093°11'2 4.8
2017-Nov-12 22:59N 29°60' W 093°13'2 4.3
2017-Nov-12 22:29N 30°02' W 093°14'2 3.5
2017-Nov-12 21:59N 30°03' W 093°16'2 4.3
2017-Nov-12 21:29N 30°05' W 093°17'1 2.2
2017-Nov-12 20:59N 30°05' W 093°18'1 2.0
2017-Nov-12 20:29N 30°06' W 093°18'0 0.2
2017-Nov-12 19:59N 30°06' W 093°18'0 0.0
2017-Nov-12 19:29N 30°06' W 093°18'0 0.0
2017-Nov-12 18:59N 30°06' W 093°18'0 0.1
2017-Nov-12 17:38N 30°06' W 093°18'0 1.6
2017-Nov-12 17:27N 30°06' W 093°19'1 1.8
2017-Nov-12 16:59N 30°06' W 093°20'2 4.2
2017-Nov-12 16:30N 30°08' W 093°20'2 4.7
2017-Nov-12 15:59N 30°10' W 093°19'3 5.2
2017-Nov-12 15:29N 30°12' W 093°17'2 3.9
2017-Nov-12 14:59N 30°14' W 093°15'0 0.7
2017-Nov-12 14:27N 30°14' W 093°15'0 0.2
2017-Nov-12 13:55N 30°14' W 093°15'0 0.1
2017-Nov-12 13:27N 30°14' W 093°15'0 0.0
2017-Nov-12 12:59N 30°14' W 093°15'0 0.0
2017-Nov-12 12:29N 30°14' W 093°15'0 0.0
2017-Nov-12 11:53N 30°14' W 093°15'51 1.7
2017-Nov-11 05:25N 29°52' W 092°22'2 5.0
2017-Nov-11 04:59N 29°51' W 092°20'2 4.7
2017-Nov-11 04:29N 29°50' W 092°18'2 5.0
2017-Nov-11 03:59N 29°48' W 092°16'3 5.8
2017-Nov-11 03:29N 29°47' W 092°13'  

Dump ship's entire track history